Time;durP1;ratioP1;P1;durP2;ratioP2;P2;SDS_P1;SDS_P2;PMS_P1;PMS_P2;Temp;Humidity;BMP_temperature;BMP_pressure;BME280_temperature;BME280_humidity;BME280_pressure;Samples;Min_cycle;Max_cycle;Signal;HPM_P1;HPM_P2
2021/12/10 00:01:28;;;;;;;16.05;8.68;;;;;;;-17.48;85.68;102433.28;5047934;28;20132;-75
2021/12/10 00:03:56;;;;;;;18.90;9.50;;;;;;;-17.49;85.82;102431.56;5053020;28;20045;-75
2021/12/10 00:06:24;;;;;;;16.42;8.75;;;;;;;-17.52;85.72;102429.06;5055077;28;20043;-74
2021/12/10 00:08:53;;;;;;;16.25;9.23;;;;;;;-17.55;85.81;102430.91;5059172;28;20033;-74
2021/12/10 00:11:54;;;;;;;19.25;9.95;;;;;;;-17.57;85.57;102428.34;5049871;28;20033;-76
2021/12/10 00:14:26;;;;;;;18.65;9.90;;;;;;;-17.60;85.71;102423.22;5041970;28;20053;-75
2021/12/10 00:16:52;;;;;;;16.63;9.00;;;;;;;-17.62;85.74;102425.06;5056027;28;20058;-74
2021/12/10 00:22:19;;;;;;;19.27;8.93;;;;;;;-17.65;85.82;102419.94;5022113;28;20094;-75
2021/12/10 00:24:46;;;;;;;16.27;9.30;;;;;;;-17.65;85.80;102412.06;5063755;28;20045;-74
2021/12/10 00:27:13;;;;;;;14.88;8.10;;;;;;;-17.66;85.92;102409.50;5047528;28;20037;-74
2021/12/10 00:29:42;;;;;;;20.92;9.70;;;;;;;-17.68;85.97;102409.59;5048415;28;20037;-74
2021/12/10 00:32:28;;;;;;;;;;;;;;;-17.67;86.00;102421.75;5065329;28;20037;-74
2021/12/10 00:34:54;;;;;;;19.15;8.55;;;;;;;-17.69;86.01;102418.38;5077251;28;19928;-74
2021/12/10 00:37:21;;;;;;;15.80;8.27;;;;;;;-17.68;85.96;102419.22;5049885;28;20377;-75
2021/12/10 00:39:58;;;;;;;15.50;8.55;;;;;;;-17.70;85.79;102416.63;5051620;28;20044;-74
2021/12/10 00:42:30;;;;;;;19.10;9.75;;;;;;;-17.73;85.99;102422.00;5055632;28;20055;-74
2021/12/10 00:44:57;;;;;;;17.10;9.02;;;;;;;-17.76;85.95;102416.88;5042479;28;20618;-74
2021/12/10 00:47:24;;;;;;;15.52;8.43;;;;;;;-17.78;85.83;102413.44;5061790;28;20045;-74
2021/12/10 00:49:51;;;;;;;18.15;9.23;;;;;;;-17.80;85.87;102410.03;5052951;28;20037;-74
2021/12/10 00:52:17;;;;;;;17.60;8.32;;;;;;;-17.81;85.91;102422.28;5082295;28;20116;-74
2021/12/10 00:54:43;;;;;;;16.58;8.60;;;;;;;-17.79;85.93;102412.59;5054885;28;20033;-74
2021/12/10 00:57:09;;;;;;;16.67;8.50;;;;;;;-17.79;85.90;102420.47;5065198;28;20048;-74
2021/12/10 00:59:36;;;;;;;19.90;9.02;;;;;;;-17.79;85.84;102420.47;5046540;28;20042;-74
2021/12/10 01:02:04;;;;;;;18.00;8.55;;;;;;;-17.81;85.85;102419.66;5048224;28;20033;-74
2021/12/10 01:04:34;;;;;;;19.63;10.32;;;;;;;-17.81;85.84;102414.44;5043276;28;20093;-74
2021/12/10 01:07:03;;;;;;;20.00;8.48;;;;;;;-17.82;85.72;102417.97;5063279;28;20546;-74
2021/12/10 01:09:32;;;;;;;18.75;9.20;;;;;;;-17.84;85.73;102411.91;5071618;28;20037;-74
2021/12/10 01:12:06;;;;;;;18.20;9.95;;;;;;;-17.88;85.75;102425.16;5051205;28;20453;-74
2021/12/10 01:25:56;;;;;;;20.83;10.20;;;;;;;-18.08;85.81;102411.00;5047447;28;20044;-73
2021/12/10 01:28:22;;;;;;;19.27;10.38;;;;;;;-18.11;85.94;102408.50;5060769;28;20040;-74
2021/12/10 01:30:48;;;;;;;18.92;10.20;;;;;;;-18.12;86.09;102405.94;5061261;28;20509;-73
2021/12/10 01:33:16;;;;;;;20.38;9.50;;;;;;;-18.14;85.86;102408.63;5059934;28;20041;-74
2021/12/10 01:35:53;;;;;;;19.40;10.93;;;;;;;-18.13;86.12;102420.81;5063322;28;20059;-74
2021/12/10 01:38:20;;;;;;;17.00;8.57;;;;;;;-18.11;86.35;102415.50;5027849;28;20044;-74
2021/12/10 01:40:49;;;;;;;16.83;8.40;;;;;;;-18.08;86.43;102424.13;5063555;28;20040;-74
2021/12/10 01:43:23;;;;;;;16.95;10.13;;;;;;;-18.07;86.46;102420.59;5058160;28;20040;-74
2021/12/10 01:46:18;;;;;;;18.25;8.45;;;;;;;-18.04;86.36;102417.88;5066991;28;20198;-74
2021/12/10 01:48:47;;;;;;;16.02;8.85;;;;;;;-18.04;86.56;102417.03;5043719;28;20553;-74
2021/12/10 01:51:17;;;;;;;16.52;8.65;;;;;;;-18.06;86.69;102413.56;5020843;28;20065;-74
2021/12/10 01:53:44;;;;;;;19.13;9.10;;;;;;;-18.04;86.43;102409.16;5034670;28;20096;-74
2021/12/10 01:56:14;;;;;;;17.95;10.50;;;;;;;-18.02;86.58;102402.09;5051861;28;20127;-74
2021/12/10 01:58:40;;;;;;;18.23;9.93;;;;;;;-18.00;86.61;102403.75;5041324;28;20573;-74
2021/12/10 02:01:10;;;;;;;18.92;10.40;;;;;;;-17.97;86.54;102401.94;5058579;28;20522;-74
2021/12/10 02:03:36;;;;;;;18.75;10.57;;;;;;;-17.92;86.80;102386.88;5053992;28;20041;-74
2021/12/10 02:06:04;;;;;;;18.77;9.85;;;;;;;-17.90;86.73;102387.69;5056126;28;20036;-74
2021/12/10 02:08:29;;;;;;;22.83;11.27;;;;;;;-17.82;86.99;102398.75;5052476;28;20036;-74
2021/12/10 02:10:55;;;;;;;21.17;12.18;;;;;;;-17.76;86.93;102399.38;5053177;28;20033;-74
2021/12/10 02:13:21;;;;;;;25.02;13.35;;;;;;;-17.66;87.12;102397.25;5059082;28;20120;-74
2021/12/10 02:15:46;;;;;;;24.60;12.40;;;;;;;-17.61;87.14;102395.31;5051954;28;20064;-74
2021/12/10 02:18:13;;;;;;;23.33;13.90;;;;;;;-17.58;87.31;102389.06;5045225;28;20036;-74
2021/12/10 02:20:53;;;;;;;25.85;12.55;;;;;;;-17.54;87.32;102388.91;5025567;28;20040;-74
2021/12/10 02:23:19;;;;;;;20.67;12.00;;;;;;;-17.51;87.36;102396.69;5045170;28;20050;-73
2021/12/10 02:25:45;;;;;;;19.00;9.73;;;;;;;-17.48;87.42;102395.69;5064588;28;20045;-74
2021/12/10 02:28:12;;;;;;;20.38;10.80;;;;;;;-17.50;87.28;102390.50;5050003;28;20491;-74
2021/12/10 02:30:39;;;;;;;20.98;11.80;;;;;;;-17.50;87.23;102397.53;5061092;28;20545;-74
2021/12/10 02:33:06;;;;;;;18.17;9.05;;;;;;;-17.52;87.15;102394.13;5051738;28;20106;-74
2021/12/10 02:35:33;;;;;;;21.38;11.02;;;;;;;-17.53;87.10;102408.97;5066537;28;20048;-74
2021/12/10 02:37:59;;;;;;;18.65;10.88;;;;;;;-17.56;87.10;102408.22;5052301;28;20516;-74
2021/12/10 02:40:26;;;;;;;18.35;10.93;;;;;;;-17.58;86.97;102403.03;5052776;28;20044;-74
2021/12/10 02:42:55;;;;;;;21.73;11.75;;;;;;;-17.58;87.04;102410.91;5038443;28;20041;-74
2021/12/10 02:45:22;;;;;;;19.67;9.98;;;;;;;-17.61;86.82;102416.28;5049960;28;20133;-74
2021/12/10 02:47:50;;;;;;;20.35;10.30;;;;;;;-17.63;86.75;102412.84;5053077;28;20045;-74
2021/12/10 02:50:18;;;;;;;19.35;10.30;;;;;;;-17.65;86.58;102403.34;5050977;28;20463;-74
2021/12/10 02:52:44;;;;;;;23.75;12.05;;;;;;;-17.68;86.55;102414.84;5032856;28;20143;-74
2021/12/10 02:55:14;;;;;;;24.45;11.57;;;;;;;-17.74;86.31;102405.41;5049817;28;20132;-74
2021/12/10 02:57:39;;;;;;;19.15;9.40;;;;;;;-17.78;86.37;102414.31;5050986;28;20033;-74
2021/12/10 03:00:10;;;;;;;19.38;10.57;;;;;;;-17.81;86.31;102413.56;5051064;28;20040;-74
2021/12/10 03:02:36;;;;;;;16.90;8.57;;;;;;;-17.86;86.22;102400.63;5043783;28;20157;-73
2021/12/10 03:05:04;;;;;;;22.45;10.32;;;;;;;-17.90;86.10;102401.63;5050990;28;20131;-73
2021/12/10 03:07:30;;;;;;;17.25;9.65;;;;;;;-17.83;86.08;102391.81;5055095;28;20039;-73
2021/12/10 03:09:56;;;;;;;20.73;9.95;;;;;;;-17.86;85.92;102405.03;5061235;28;20037;-73
2021/12/10 03:12:22;;;;;;;19.05;9.43;;;;;;;-17.87;86.01;102408.53;5049971;28;20120;-73
2021/12/10 03:14:52;;;;;;;21.20;9.85;;;;;;;-17.89;85.98;102413.81;5050747;28;20052;-73
2021/12/10 03:17:24;;;;;;;16.85;8.30;;;;;;;-17.90;86.05;102404.25;5004389;28;20485;-74
2021/12/10 03:19:51;;;;;;;13.82;7.50;;;;;;;-17.87;85.94;102411.16;5052325;28;20053;-74
2021/12/10 03:22:17;;;;;;;18.92;9.85;;;;;;;-17.88;85.87;102407.69;5047674;28;20400;-74
2021/12/10 03:24:44;;;;;;;14.95;7.63;;;;;;;-17.88;85.64;102409.44;5050167;28;20588;-74
2021/12/10 03:27:11;;;;;;;17.08;8.30;;;;;;;-17.90;85.64;102419.97;5050180;28;20127;-74
2021/12/10 03:29:39;;;;;;;13.30;8.65;;;;;;;-17.93;85.63;102406.13;5049538;28;20089;-74
2021/12/10 03:32:10;;;;;;;18.75;9.93;;;;;;;-17.94;85.49;102413.16;5051014;28;20044;-74
2021/12/10 03:34:36;;;;;;;18.40;9.35;;;;;;;-17.96;85.61;102391.38;5050506;28;20454;-74
2021/12/10 03:37:03;;;;;;;17.13;9.40;;;;;;;-17.98;85.41;102406.31;5050272;28;20068;-74
2021/12/10 03:39:29;;;;;;;17.75;9.68;;;;;;;-17.98;85.54;102403.69;5050251;28;20037;-74
2021/12/10 03:41:57;;;;;;;17.92;9.68;;;;;;;-17.97;85.42;102396.69;5032590;28;20041;-74
2021/12/10 03:44:23;;;;;;;16.83;9.50;;;;;;;-17.96;85.41;102398.41;5055257;28;20035;-74
2021/12/10 03:46:50;;;;;;;13.88;5.93;;;;;;;-17.95;85.31;102397.47;5071658;28;20040;-75
2021/12/10 03:49:16;;;;;;;7.15;4.22;;;;;;;-17.95;85.35;102405.34;5044120;28;20043;-75
2021/12/10 03:51:42;;;;;;;10.63;4.20;;;;;;;-17.95;85.30;102414.06;5049183;28;20347;-75
2021/12/10 03:54:09;;;;;;;11.80;5.63;;;;;;;-17.96;85.27;102406.25;5046927;28;20032;-77
2021/12/10 03:56:36;;;;;;;9.23;4.43;;;;;;;-17.98;85.23;102400.22;5051800;28;20124;-77
2021/12/10 03:59:04;;;;;;;14.10;6.05;;;;;;;-17.98;85.28;102400.22;5048250;28;20064;-76
2021/12/10 04:01:31;;;;;;;6.82;4.05;;;;;;;-18.02;85.13;102405.56;5082236;28;20043;-76
2021/12/10 04:04:00;;;;;;;11.77;4.25;;;;;;;-18.04;85.16;102398.69;5048651;28;20102;-75
2021/12/10 04:06:26;;;;;;;9.37;3.70;;;;;;;-18.08;85.16;102404.91;5055544;28;20055;-75
2021/12/10 04:08:52;;;;;;;13.70;4.70;;;;;;;-18.11;85.14;102399.78;5058718;28;20051;-75
2021/12/10 04:11:18;;;;;;;6.95;3.70;;;;;;;-18.12;84.94;102406.81;5045593;28;20041;-75
2021/12/10 04:13:46;;;;;;;10.40;4.47;;;;;;;-18.11;84.94;102411.13;5039677;28;20059;-75
2021/12/10 04:16:13;;;;;;;10.95;4.38;;;;;;;-18.09;85.06;102413.69;5053708;28;20079;-75
2021/12/10 04:18:39;;;;;;;9.55;4.68;;;;;;;-18.13;84.99;102412.94;5046360;28;20037;-75
2021/12/10 04:21:05;;;;;;;13.90;5.88;;;;;;;-18.13;84.92;102406.84;5078478;28;20056;-77
2021/12/10 04:23:31;;;;;;;7.13;4.05;;;;;;;-18.17;85.16;102406.13;5052880;28;20040;-77
2021/12/10 04:25:58;;;;;;;6.82;4.03;;;;;;;-18.18;84.98;102400.94;5036268;28;20037;-77
2021/12/10 04:28:24;;;;;;;13.50;6.00;;;;;;;-18.20;84.95;102405.38;5052971;28;20047;-75
2021/12/10 04:30:50;;;;;;;9.68;5.10;;;;;;;-18.27;84.77;102409.94;5056682;28;20127;-78
2021/12/10 04:33:21;;;;;;;10.02;5.28;;;;;;;-18.31;84.84;102403.97;5034394;28;20040;-78
2021/12/10 04:35:49;;;;;;;10.95;5.43;;;;;;;-18.31;84.69;102403.13;5017092;28;20522;-75
2021/12/10 04:38:16;;;;;;;5.47;3.30;;;;;;;-18.34;84.62;102404.09;5054727;28;20122;-75
2021/12/10 04:40:42;;;;;;;12.10;4.57;;;;;;;-18.33;84.71;102416.25;5067474;28;20037;-77
2021/12/10 04:43:07;;;;;;;8.75;4.55;;;;;;;-18.33;84.89;102418.03;5049180;28;20036;-89
2021/12/10 04:45:33;;;;;;;10.50;4.63;;;;;;;-18.32;84.78;102417.13;5029639;28;20048;-78
2021/12/10 04:47:59;;;;;;;8.00;3.00;;;;;;;-18.32;84.73;102422.34;5051024;28;20080;-78
2021/12/10 04:50:27;;;;;;;7.40;3.35;;;;;;;-18.31;84.65;102419.69;5050152;28;20127;-78
2021/12/10 04:52:54;;;;;;;9.77;5.32;;;;;;;-18.29;84.75;102417.00;5049909;28;20037;-77
2021/12/10 04:55:20;;;;;;;9.00;3.92;;;;;;;-18.27;84.77;102417.81;5066784;28;20041;-77
2021/12/10 04:57:46;;;;;;;9.38;3.72;;;;;;;-18.28;84.79;102430.97;5052733;28;20059;-77
2021/12/10 05:00:18;;;;;;;9.45;4.35;;;;;;;-18.29;84.71;102417.00;5068107;28;20037;-77
2021/12/10 05:02:44;;;;;;;8.60;4.55;;;;;;;-18.32;84.72;102425.84;5048341;28;20033;-76
2021/12/10 05:05:11;;;;;;;6.13;3.22;;;;;;;-18.34;84.65;102419.78;5033536;28;20040;-77
2021/12/10 05:07:37;;;;;;;8.52;3.92;;;;;;;-18.35;84.63;102422.47;5048867;28;20037;-77
2021/12/10 05:10:05;;;;;;;9.82;4.82;;;;;;;-18.40;84.63;102412.13;5053460;28;20132;-77
2021/12/10 05:12:31;;;;;;;12.15;5.68;;;;;;;-18.41;84.62;102412.19;5052282;28;20496;-77
2021/12/10 05:15:00;;;;;;;12.73;5.28;;;;;;;-18.42;84.57;102410.47;5034972;28;20053;-77
2021/12/10 05:17:29;;;;;;;13.38;6.32;;;;;;;-18.44;84.58;102401.81;5053364;28;20094;-76
2021/12/10 05:19:55;;;;;;;14.88;7.03;;;;;;;-18.49;84.51;102399.38;5052796;28;20428;-79
2021/12/10 05:22:21;;;;;;;8.02;3.67;;;;;;;-18.52;84.71;102398.63;5050133;28;20067;-77
2021/12/10 05:24:47;;;;;;;13.10;5.97;;;;;;;-18.53;84.49;102402.16;5043811;28;20582;-77
2021/12/10 05:27:12;;;;;;;5.35;2.95;;;;;;;-18.54;84.50;102400.44;5051961;28;20584;-77
2021/12/10 05:29:38;;;;;;;7.78;4.55;;;;;;;-18.51;84.60;102397.72;5068392;28;20493;-77
2021/12/10 05:32:05;;;;;;;13.73;6.50;;;;;;;-18.51;84.49;102402.94;5051673;28;20124;-77
2021/12/10 05:34:31;;;;;;;12.05;5.05;;;;;;;-18.51;84.44;102405.56;5031913;28;20068;-77
2021/12/10 05:36:58;;;;;;;11.63;6.13;;;;;;;-18.52;84.49;102404.72;5049365;28;20043;-77
2021/12/10 05:39:25;;;;;;;7.80;3.53;;;;;;;-18.55;84.43;102396.13;5056342;28;20041;-78
2021/12/10 05:41:52;;;;;;;9.48;5.10;;;;;;;-18.57;84.44;102422.31;5052336;28;20047;-78
2021/12/10 05:44:18;;;;;;;11.43;4.47;;;;;;;-18.56;84.39;102397.88;5051714;28;20081;-78
2021/12/10 05:46:44;;;;;;;13.13;5.90;;;;;;;-18.58;84.42;102402.28;5051444;28;20041;-77
2021/12/10 05:49:10;;;;;;;4.05;2.58;;;;;;;-18.56;84.30;102397.03;5034914;28;20036;-77
2021/12/10 05:51:36;;;;;;;9.52;3.53;;;;;;;-18.54;84.41;102397.81;5052503;28;20033;-77
2021/12/10 05:54:02;;;;;;;9.55;4.65;;;;;;;-18.52;84.59;102394.25;5051199;28;20036;-76
2021/12/10 05:56:30;;;;;;;8.88;3.78;;;;;;;-18.52;84.42;102401.25;5052382;28;20143;-77
2021/12/10 05:58:56;;;;;;;7.10;4.32;;;;;;;-18.51;84.44;102397.72;5052096;28;20041;-77
2021/12/10 06:01:22;;;;;;;8.68;3.95;;;;;;;-18.48;84.41;102392.38;5052362;28;20059;-78
2021/12/10 06:03:52;;;;;;;10.10;4.85;;;;;;;-18.42;84.51;102410.47;5050932;28;20041;-77
2021/12/10 06:06:24;;;;;;;7.95;4.40;;;;;;;-18.43;84.45;102383.44;5051099;28;20037;-77
2021/12/10 06:08:50;;;;;;;12.52;4.60;;;;;;;-18.43;84.39;102387.81;5034201;28;20062;-77
2021/12/10 06:11:17;;;;;;;4.90;2.70;;;;;;;-18.42;84.39;102372.06;5048176;28;20384;-77
2021/12/10 06:13:44;;;;;;;5.53;3.28;;;;;;;-18.41;84.31;102371.13;5047263;28;20462;-77
2021/12/10 06:16:09;;;;;;;8.23;3.88;;;;;;;-18.36;84.43;102368.38;5049827;28;20056;-77
2021/12/10 06:18:35;;;;;;;7.15;3.63;;;;;;;-18.33;84.20;102368.28;5050652;28;20036;-77
2021/12/10 06:21:01;;;;;;;5.85;3.67;;;;;;;-18.32;84.25;102375.22;5067134;28;20044;-78
2021/12/10 06:23:26;;;;;;;6.15;3.63;;;;;;;-18.30;84.11;102389.97;5050685;28;20498;-77
2021/12/10 06:25:52;;;;;;;11.35;5.75;;;;;;;-18.27;84.06;102375.91;5051708;28;20049;-78
2021/12/10 06:28:18;;;;;;;7.78;3.25;;;;;;;-18.25;84.00;102368.84;5051921;28;20041;-78
2021/12/10 06:30:45;;;;;;;8.88;4.28;;;;;;;-18.21;83.96;102373.09;5050602;28;20131;-78
2021/12/10 06:33:14;;;;;;;6.90;4.03;;;;;;;-18.15;83.99;102374.63;5050621;28;20675;-78
2021/12/10 06:35:42;;;;;;;3.00;1.95;;;;;;;-18.10;83.89;102370.91;5050428;28;20143;-78
2021/12/10 06:38:08;;;;;;;2.20;1.58;;;;;;;-18.06;83.95;102362.03;5051321;28;20045;-78
2021/12/10 06:40:35;;;;;;;6.13;3.75;;;;;;;-18.04;83.86;102365.47;5050277;28;20106;-78
2021/12/10 06:43:02;;;;;;;5.05;3.05;;;;;;;-18.00;83.77;102368.84;5051334;28;20590;-78
2021/12/10 06:45:29;;;;;;;6.40;2.95;;;;;;;-18.00;83.81;102372.31;5050500;28;20049;-78
2021/12/10 06:48:01;;;;;;;5.80;2.90;;;;;;;-18.02;84.03;102353.16;5029776;28;20037;-78
2021/12/10 06:50:31;;;;;;;1.27;1.10;;;;;;;-18.01;83.66;102349.63;5033553;28;20045;-78
2021/12/10 06:52:58;;;;;;;1.63;1.35;;;;;;;-18.03;83.48;102358.47;5050978;28;20044;-78
2021/12/10 06:55:25;;;;;;;3.85;2.05;;;;;;;-18.03;83.23;102356.69;5033279;28;20040;-78
2021/12/10 06:57:51;;;;;;;7.75;3.67;;;;;;;-18.05;83.27;102353.25;5050081;28;20041;-78
2021/12/10 07:00:23;;;;;;;10.27;4.68;;;;;;;-18.04;83.04;102364.63;5051352;28;20080;-78
2021/12/10 07:02:50;;;;;;;4.55;2.83;;;;;;;-18.03;83.30;102348.00;5066375;28;20029;-78
2021/12/10 07:05:16;;;;;;;8.77;4.20;;;;;;;-18.03;83.36;102351.47;5049996;28;20667;-78
2021/12/10 07:07:42;;;;;;;5.72;3.45;;;;;;;-18.01;83.28;102349.63;5032922;28;20052;-78
2021/12/10 07:10:09;;;;;;;6.28;2.55;;;;;;;-18.00;83.05;102343.47;5050111;28;20036;-77
2021/12/10 07:12:36;;;;;;;6.50;3.17;;;;;;;-17.95;83.08;102337.22;5033379;28;20041;-77
2021/12/10 07:15:06;;;;;;;5.93;3.08;;;;;;;-17.92;83.13;102331.84;5065861;28;20071;-76
2021/12/10 07:17:32;;;;;;;8.45;3.28;;;;;;;-17.88;83.09;102338.69;5066688;28;20087;-78
2021/12/10 07:19:58;;;;;;;6.38;3.65;;;;;;;-17.83;83.10;102342.00;5029459;28;20033;-78
2021/12/10 07:22:24;;;;;;;4.03;3.08;;;;;;;-17.79;83.22;102323.47;5046575;28;20049;-78
2021/12/10 07:24:49;;;;;;;7.32;3.55;;;;;;;-17.74;83.04;102331.16;5060106;28;20040;-78
2021/12/10 07:27:15;;;;;;;2.58;1.83;;;;;;;-17.71;83.07;102321.41;5046324;28;20048;-77
2021/12/10 07:29:41;;;;;;;4.93;2.80;;;;;;;-17.60;83.08;102328.84;5042909;28;20495;-78
2021/12/10 07:32:07;;;;;;;8.50;2.88;;;;;;;-17.26;83.02;102327.50;5049561;28;20143;-76
2021/12/10 07:34:33;;;;;;;10.32;4.63;;;;;;;-16.79;82.80;102318.53;5050437;28;20037;-79
2021/12/10 07:36:58;;;;;;;4.57;2.92;;;;;;;-16.51;82.43;102330.44;5033155;28;20041;-77
2021/12/10 07:39:24;;;;;;;6.60;3.22;;;;;;;-16.62;82.67;102333.56;5050715;28;20095;-77
2021/12/10 07:41:50;;;;;;;7.60;3.85;;;;;;;-16.61;82.76;102331.78;5049395;28;20044;-78
2021/12/10 07:44:18;;;;;;;0.45;0.43;;;;;;;-16.28;82.25;102330.31;5049245;28;20143;-77
2021/12/10 07:46:44;;;;;;;6.22;2.78;;;;;;;-15.76;81.82;102333.25;5065948;28;20467;-77
2021/12/10 07:49:15;;;;;;;6.75;3.13;;;;;;;-15.27;81.19;102325.63;5032747;28;20045;-77
2021/12/10 07:51:44;;;;;;;7.55;3.70;;;;;;;-14.89;80.76;102328.19;5065450;28;20064;-77
2021/12/10 07:54:10;;;;;;;9.80;3.07;;;;;;;-14.60;80.68;102314.38;5049645;28;20072;-77
2021/12/10 07:56:36;;;;;;;5.32;3.35;;;;;;;-14.25;80.29;102317.78;5066132;28;20283;-77
2021/12/10 07:59:02;;;;;;;7.70;4.20;;;;;;;-14.06;79.82;102330.88;5050054;28;20063;-77
2021/12/10 08:01:29;;;;;;;6.88;3.50;;;;;;;-13.84;79.44;102307.69;5044911;28;20483;-78
2021/12/10 08:03:57;;;;;;;6.32;3.47;;;;;;;-13.55;78.62;102314.00;5048557;28;20619;-78
2021/12/10 08:06:25;;;;;;;10.80;4.20;;;;;;;-13.27;77.96;102308.06;5048879;28;20033;-78
2021/12/10 08:08:51;;;;;;;7.18;2.90;;;;;;;-13.05;77.41;102301.50;5048899;28;20037;-78
2021/12/10 08:11:17;;;;;;;7.00;3.17;;;;;;;-13.12;76.18;102325.63;5050599;28;20109;-79
2021/12/10 08:13:43;;;;;;;0.75;0.75;;;;;;;-12.97;75.59;102304.56;5065944;28;20036;-78
2021/12/10 08:16:09;;;;;;;5.10;3.13;;;;;;;-12.95;74.88;102314.09;5050166;28;20140;-78
2021/12/10 08:18:34;;;;;;;6.07;3.67;;;;;;;-13.02;74.24;102306.59;5032708;28;20044;-78
2021/12/10 08:21:00;;;;;;;6.72;3.33;;;;;;;-12.96;74.14;102309.78;5050168;28;20123;-78
2021/12/10 08:23:26;;;;;;;5.43;2.80;;;;;;;-13.27;73.63;102312.47;5050001;28;20113;-76
2021/12/10 08:25:52;;;;;;;1.17;0.73;;;;;;;-13.55;73.33;102313.16;5082637;28;20074;-77
2021/12/10 08:28:21;;;;;;;4.35;2.55;;;;;;;-14.26;73.67;102321.38;5065742;28;20037;-77
2021/12/10 08:30:48;;;;;;;4.97;2.95;;;;;;;-14.80;74.78;102314.53;5050112;28;20131;-76
2021/12/10 08:33:14;;;;;;;9.98;3.53;;;;;;;-15.02;75.72;102309.50;5061411;28;20128;-77
2021/12/10 08:35:46;;;;;;;6.50;3.05;;;;;;;-15.24;76.52;102313.19;5046357;28;20049;-77
2021/12/10 08:38:12;;;;;;;5.50;2.15;;;;;;;-15.38;76.72;102307.72;5049993;28;20043;-78
2021/12/10 08:40:48;;;;;;;8.75;3.65;;;;;;;-15.44;77.49;102312.41;5032097;28;20041;-77
2021/12/10 08:43:15;;;;;;;6.72;3.53;;;;;;;-15.56;77.88;102305.97;5048808;28;20101;-77
2021/12/10 08:45:41;;;;;;;7.38;3.20;;;;;;;-15.63;78.08;102294.03;5049553;28;20045;-77
2021/12/10 08:48:07;;;;;;;10.50;2.15;;;;;;;-15.65;78.47;102299.38;5049678;28;20123;-77
2021/12/10 08:50:35;;;;;;;3.22;1.52;;;;;;;-15.64;78.74;102295.81;5049628;28;20148;-77
2021/12/10 08:53:04;;;;;;;6.97;4.45;;;;;;;-15.64;79.02;102300.22;5064751;28;20438;-77
2021/12/10 08:55:30;;;;;;;;;;;;;;;-15.64;78.96;102287.94;5050378;28;20068;-77
2021/12/10 08:57:56;;;;;;;5.80;3.15;;;;;;;-15.66;79.30;102297.69;5049542;28;19975;-77
2021/12/10 09:00:23;;;;;;;4.80;3.05;;;;;;;-15.64;79.45;102292.34;5083831;28;20064;-76
2021/12/10 09:02:51;;;;;;;5.53;3.45;;;;;;;-15.67;79.44;102290.72;5068739;28;20475;-76
2021/12/10 09:05:18;;;;;;;7.35;3.25;;;;;;;-15.66;79.72;102297.69;5043222;28;20037;-77
2021/12/10 09:07:45;;;;;;;6.03;2.22;;;;;;;-15.69;79.72;102287.31;5037527;28;20037;-76
2021/12/10 09:10:12;;;;;;;3.22;2.40;;;;;;;-15.69;79.97;102275.94;5051646;28;20044;-76
2021/12/10 09:12:38;;;;;;;2.70;1.50;;;;;;;-15.68;79.91;102291.63;5052934;28;20033;-77
2021/12/10 09:15:10;;;;;;;6.18;2.75;;;;;;;-15.67;79.88;102290.72;5035193;28;20049;-78
2021/12/10 09:17:39;;;;;;;6.97;3.88;;;;;;;-15.62;80.14;102295.75;5052068;28;20128;-78
2021/12/10 09:20:10;;;;;;;2.60;1.80;;;;;;;-15.60;80.29;102296.56;5035639;28;20056;-78
2021/12/10 09:22:36;;;;;;;3.50;2.83;;;;;;;-15.57;80.41;102314.78;5053089;28;20460;-77
2021/12/10 09:25:04;;;;;;;5.13;2.45;;;;;;;-15.56;80.22;102292.81;5051645;28;20065;-77
2021/12/10 09:27:29;;;;;;;2.78;1.17;;;;;;;-15.52;80.33;102283.84;5052534;28;20036;-78
2021/12/10 09:29:55;;;;;;;2.35;1.95;;;;;;;-15.48;80.31;102289.81;5050841;28;20037;-78
2021/12/10 09:32:24;;;;;;;4.68;3.10;;;;;;;-15.46;80.32;102294.06;5051567;28;20045;-77
2021/12/10 09:34:52;;;;;;;4.80;3.13;;;;;;;-15.44;80.60;102275.56;5035088;28;20044;-77
2021/12/10 09:37:19;;;;;;;2.50;1.37;;;;;;;-15.46;80.82;102280.91;5051605;28;20032;-77
2021/12/10 09:39:48;;;;;;;3.67;2.00;;;;;;;-15.45;80.49;102271.22;5052524;28;20323;-78
2021/12/10 09:42:14;;;;;;;6.22;2.47;;;;;;;-15.42;80.61;102269.34;5053033;28;20035;-78
2021/12/10 09:44:42;;;;;;;5.80;2.28;;;;;;;-15.39;80.72;102268.31;5018437;28;20076;-78
2021/12/10 09:47:11;;;;;;;2.33;1.50;;;;;;;-15.39;80.76;102260.44;5049303;28;20392;-78
2021/12/10 09:49:36;;;;;;;3.00;2.22;;;;;;;-15.39;81.07;102253.38;5052423;28;20044;-74
2021/12/10 09:52:06;;;;;;;5.03;2.78;;;;;;;-15.37;81.08;102242.78;5051563;28;20037;-74
2021/12/10 09:54:32;;;;;;;;;;;;;;;-15.36;80.97;102247.13;5052788;28;20503;-74
2021/12/10 09:57:14;;;;;;;3.97;1.95;;;;;;;-15.28;81.26;102250.22;5050999;28;19982;-72
2021/12/10 09:59:42;;;;;;;5.22;3.15;;;;;;;-15.24;81.28;102238.63;5051747;28;20056;-72
2021/12/10 10:02:08;;;;;;;4.05;2.33;;;;;;;-15.22;81.63;102242.03;5034440;28;20102;-76
2021/12/10 10:04:35;;;;;;;5.65;3.05;;;;;;;-15.16;81.58;102239.09;5050807;28;20102;-74
2021/12/10 10:07:07;;;;;;;4.68;2.53;;;;;;;-15.12;81.85;102245.91;5052147;28;20033;-75
2021/12/10 10:09:33;;;;;;;3.85;2.63;;;;;;;-15.07;81.78;102235.16;5051048;28;20036;-75
2021/12/10 10:12:11;;;;;;;7.50;3.25;;;;;;;-15.05;81.71;102263.09;5033328;28;20096;-75
2021/12/10 10:14:38;;;;;;;2.95;1.42;;;;;;;-15.01;81.71;102248.00;5052148;28;20084;-75
2021/12/10 10:17:05;;;;;;;6.43;3.08;;;;;;;-14.94;81.49;102250.22;5051537;28;20044;-75
2021/12/10 10:19:30;;;;;;;3.70;2.65;;;;;;;-14.93;81.81;102251.09;5035416;28;20045;-75
2021/12/10 10:21:57;;;;;;;0.90;0.68;;;;;;;-14.91;81.78;102249.25;5051882;28;20341;-73
2021/12/10 10:24:27;;;;;;;6.25;2.63;;;;;;;-14.87;81.76;102250.78;5050384;28;20074;-74
2021/12/10 10:27:04;;;;;;;5.97;2.75;;;;;;;-14.86;81.65;102251.63;5033047;28;20036;-73
2021/12/10 10:29:33;;;;;;;3.38;2.28;;;;;;;-14.85;81.50;102255.97;5051361;28;20079;-74
2021/12/10 10:32:08;;;;;;;3.33;1.77;;;;;;;-14.83;81.61;102259.38;5066174;28;20037;-75
2021/12/10 10:34:38;;;;;;;3.25;2.53;;;;;;;-14.81;81.72;102249.63;5051506;28;20086;-73
2021/12/10 10:37:04;;;;;;;5.20;2.83;;;;;;;-14.79;81.66;102242.47;5051059;28;20483;-74
2021/12/10 10:39:34;;;;;;;5.93;3.30;;;;;;;-14.77;81.90;102262.53;5066994;28;20571;-74
2021/12/10 10:42:01;;;;;;;2.28;1.17;;;;;;;-14.75;81.98;102247.53;5051306;28;20039;-73
2021/12/10 10:44:27;;;;;;;0.73;0.73;;;;;;;-14.70;82.22;102242.03;5050150;28;20530;-74
2021/12/10 10:46:57;;;;;;;3.85;2.25;;;;;;;-14.69;81.94;102239.31;5051569;28;20041;-73
2021/12/10 10:49:31;;;;;;;;;;;;;;;-14.66;82.06;102239.16;5051144;28;20043;-73
2021/12/10 10:51:57;;;;;;;9.82;2.45;;;;;;;-14.64;82.10;102244.34;5051610;28;19926;-73
2021/12/10 10:54:30;;;;;;;2.92;1.88;;;;;;;-14.62;82.08;102226.66;5051314;28;20120;-74
2021/12/10 10:56:56;;;;;;;0.73;0.73;;;;;;;-14.59;82.15;102220.38;5051102;28;20098;-73
2021/12/10 10:59:26;;;;;;;6.40;3.40;;;;;;;-14.56;82.06;102236.91;5033304;28;20037;-74
2021/12/10 11:02:05;;;;;;;4.13;2.22;;;;;;;-14.53;82.08;102222.69;5045760;28;20037;-75
2021/12/10 11:04:52;;;;;;;5.00;3.28;;;;;;;-14.48;82.21;102237.34;5046894;28;20052;-74
2021/12/10 11:07:27;;;;;;;4.40;2.58;;;;;;;-14.46;82.10;102229.34;5043088;28;20037;-75
2021/12/10 11:10:01;;;;;;;4.63;2.83;;;;;;;-14.41;82.04;102225.47;5082444;28;20047;-75
2021/12/10 11:12:33;;;;;;;3.22;2.42;;;;;;;-14.40;82.12;102213.19;5050425;28;20406;-74
2021/12/10 11:15:01;;;;;;;3.80;2.13;;;;;;;-14.36;82.11;102226.09;5081167;28;20139;-73
2021/12/10 11:17:45;;;;;;;6.13;2.80;;;;;;;-14.34;82.15;102212.84;5049598;28;20044;-74
2021/12/10 11:20:19;;;;;;;4.28;2.10;;;;;;;-14.32;82.16;102226.78;5033183;28;20415;-74
2021/12/10 11:22:53;;;;;;;0.45;0.45;;;;;;;-14.28;82.04;102223.06;5050290;28;20035;-74
2021/12/10 11:25:26;;;;;;;4.28;2.35;;;;;;;-14.29;81.95;102209.97;5049259;28;20550;-74
2021/12/10 11:28:00;;;;;;;0.77;0.77;;;;;;;-14.29;82.02;102215.22;5050801;28;20118;-75
2021/12/10 11:30:26;;;;;;;3.80;2.75;;;;;;;-14.28;81.90;102240.66;5066322;28;21319;-74
2021/12/10 11:33:01;;;;;;;2.28;1.85;;;;;;;-14.32;81.97;102211.81;5049408;28;20037;-75